Time;durP1;ratioP1;P1;durP2;ratioP2;P2;SDS_P1;SDS_P2;PMS_P1;PMS_P2;Temp;Humidity;BMP_temperature;BMP_pressure;BME280_temperature;BME280_humidity;BME280_pressure;Samples;Min_cycle;Max_cycle;Signal;HPM_P1;HPM_P2
2023/03/07 00:01:49;;;;;;;2.00;1.10;;;7.90;27.30;;;;;;5059488;28;20236;-73
2023/03/07 00:04:15;;;;;;;2.10;1.25;;;7.80;27.50;;;;;;5066710;28;20210;-73
2023/03/07 00:06:41;;;;;;;6.93;2.03;;;7.40;27.70;;;;;;5071985;28;20264;-73
2023/03/07 00:09:06;;;;;;;2.30;1.30;;;6.90;28.50;;;;;;5069676;28;20175;-72
2023/03/07 00:11:32;;;;;;;2.47;1.50;;;7.00;28.50;;;;;;5061097;28;20176;-72
2023/03/07 00:13:57;;;;;;;2.50;1.40;;;6.90;28.70;;;;;;5060795;28;20600;-73
2023/03/07 00:16:24;;;;;;;2.20;1.30;;;7.30;27.90;;;;;;5056909;28;20208;-73
2023/03/07 00:18:50;;;;;;;2.15;1.20;;;7.10;28.00;;;;;;5053669;28;20176;-73
2023/03/07 00:21:21;;;;;;;2.10;1.20;;;7.00;28.30;;;;;;5059526;28;20183;-71
2023/03/07 00:23:47;;;;;;;2.00;1.10;;;7.10;28.40;;;;;;5063711;28;20203;-73
2023/03/07 00:26:16;;;;;;;2.20;1.20;;;7.30;28.00;;;;;;5059205;28;20571;-73
2023/03/07 00:28:42;;;;;;;2.10;1.20;;;7.10;28.50;;;;;;5060058;28;20200;-73
2023/03/07 00:31:10;;;;;;;2.10;1.20;;;6.80;29.00;;;;;;5051984;28;20195;-73
2023/03/07 00:33:37;;;;;;;2.00;1.10;;;7.00;28.60;;;;;;5054657;28;20254;-73
2023/03/07 00:36:06;;;;;;;5.05;1.40;;;7.50;28.00;;;;;;5064142;28;20195;-73
2023/03/07 00:38:32;;;;;;;2.10;1.20;;;6.80;28.70;;;;;;5062581;28;20767;-73
2023/03/07 00:41:06;;;;;;;2.00;1.10;;;6.70;29.80;;;;;;5063157;28;20669;-73
2023/03/07 00:43:32;;;;;;;2.10;1.20;;;6.50;29.50;;;;;;5054913;28;20176;-73
2023/03/07 00:45:57;;;;;;;2.08;1.10;;;6.00;30.20;;;;;;5059823;28;20744;-73
2023/03/07 00:48:24;;;;;;;2.20;1.30;;;6.50;30.00;;;;;;5059216;28;20180;-72
2023/03/07 00:50:51;;;;;;;2.28;1.30;;;6.30;30.10;;;;;;5069739;28;20278;-73
2023/03/07 00:53:18;;;;;;;2.00;1.10;;;6.70;29.60;;;;;;5063654;28;20395;-72
2023/03/07 00:56:06;;;;;;;2.00;1.10;;;6.80;29.50;;;;;;5059212;28;20204;-73
2023/03/07 00:58:34;;;;;;;2.10;1.10;;;7.30;28.80;;;;;;5059542;28;20265;-73
2023/03/07 01:01:00;;;;;;;2.40;1.40;;;7.70;27.90;;;;;;5059742;28;20244;-73
2023/03/07 01:03:27;;;;;;;2.70;1.30;;;7.90;27.50;;;;;;5055827;28;20218;-73
2023/03/07 01:05:53;;;;;;;2.20;1.20;;;7.90;27.40;;;;;;5060874;28;20215;-73
2023/03/07 01:08:20;;;;;;;2.20;1.20;;;7.60;27.90;;;;;;5071162;28;20179;-73
2023/03/07 01:10:49;;;;;;;2.17;1.20;;;7.70;27.70;;;;;;5071236;28;20171;-73
2023/03/07 01:13:17;;;;;;;2.10;1.20;;;7.80;28.00;;;;;;5068739;28;20179;-73
2023/03/07 01:15:42;;;;;;;2.55;1.67;;;7.60;28.00;;;;;;5068332;28;20213;-73
2023/03/07 01:18:09;;;;;;;2.10;1.17;;;7.90;27.40;;;;;;5062803;28;20179;-73
2023/03/07 01:20:36;;;;;;;2.10;1.20;;;8.00;27.10;;;;;;5071149;28;20175;-73
2023/03/07 01:23:03;;;;;;;2.30;1.25;;;8.00;27.40;;;;;;5070235;28;20183;-73
2023/03/07 01:25:30;;;;;;;2.20;1.30;;;8.00;27.30;;;;;;5063342;28;20191;-74
2023/03/07 01:27:55;;;;;;;2.10;1.20;;;8.00;28.20;;;;;;5071001;28;20266;-73
2023/03/07 01:30:23;;;;;;;2.10;1.20;;;7.70;28.00;;;;;;5053185;28;20263;-73
2023/03/07 01:36:20;;;;;;;2.17;1.17;;;7.60;27.90;;;;;;5054489;28;20254;-70
2023/03/07 01:38:48;;;;;;;2.83;1.85;;;7.40;28.70;;;;;;5048230;28;20222;-73
2023/03/07 01:41:15;;;;;;;2.20;1.20;;;7.30;28.60;;;;;;5068004;28;20340;-74
2023/03/07 01:43:41;;;;;;;2.17;1.10;;;7.30;28.30;;;;;;5065188;28;20183;-73
2023/03/07 01:46:25;;;;;;;2.10;1.20;;;7.80;28.30;;;;;;5063298;28;20290;-73
2023/03/07 01:48:55;;;;;;;2.10;1.10;;;8.00;27.10;;;;;;5065155;28;20245;-73
2023/03/07 01:51:22;;;;;;;2.10;1.10;;;8.00;27.70;;;;;;5068975;28;20179;-74
2023/03/07 01:53:50;;;;;;;2.10;1.10;;;7.80;27.30;;;;;;5068608;28;20183;-73
2023/03/07 01:56:15;;;;;;;2.30;1.50;;;7.80;27.80;;;;;;5061498;28;20226;-73
2023/03/07 01:58:41;;;;;;;2.07;1.23;;;7.40;28.10;;;;;;5064186;28;20179;-73
2023/03/07 02:01:10;;;;;;;2.00;1.17;;;7.50;28.10;;;;;;5059295;28;20182;-71
2023/03/07 02:03:43;;;;;;;2.42;1.55;;;7.30;27.90;;;;;;5054083;28;20184;-73
2023/03/07 02:06:10;;;;;;;2.20;1.20;;;7.20;27.80;;;;;;5061125;28;20242;-72
2023/03/07 02:08:37;;;;;;;2.10;1.20;;;7.40;27.90;;;;;;5056274;28;20298;-73
2023/03/07 02:11:04;;;;;;;2.10;1.20;;;7.00;27.90;;;;;;5070217;28;20266;-73
2023/03/07 02:13:30;;;;;;;2.65;1.50;;;6.80;27.90;;;;;;5066624;28;20178;-73
2023/03/07 02:15:58;;;;;;;2.10;1.13;;;6.60;28.10;;;;;;5043490;28;20204;-72
2023/03/07 02:18:27;;;;;;;2.08;1.10;;;7.10;28.00;;;;;;5054771;28;20545;-73
2023/03/07 02:21:04;;;;;;;2.13;1.30;;;6.70;27.80;;;;;;5069830;28;20236;-73
2023/03/07 02:23:44;;;;;;;2.10;1.25;;;6.40;28.50;;;;;;5061876;28;20206;-73
2023/03/07 02:26:15;;;;;;;2.00;1.10;;;5.90;29.30;;;;;;5054325;28;20191;-73
2023/03/07 02:28:42;;;;;;;2.00;1.10;;;6.20;29.10;;;;;;5057090;28;20179;-73
2023/03/07 02:31:09;;;;;;;1.98;1.00;;;6.40;28.70;;;;;;5071036;28;20207;-73
2023/03/07 02:33:34;;;;;;;2.20;1.30;;;7.20;27.70;;;;;;5069818;28;20175;-73
2023/03/07 02:36:10;;;;;;;1.90;1.00;;;6.80;27.60;;;;;;5072595;28;20672;-73
2023/03/07 02:38:39;;;;;;;2.00;1.10;;;6.30;29.10;;;;;;5070347;28;20184;-73
2023/03/07 02:41:07;;;;;;;2.10;1.20;;;6.60;28.00;;;;;;5054787;28;20190;-73
2023/03/07 02:43:33;;;;;;;2.00;1.20;;;6.50;27.70;;;;;;5061954;28;20172;-71
2023/03/07 02:45:58;;;;;;;2.10;1.27;;;6.30;28.40;;;;;;5071566;28;20199;-74
2023/03/07 02:48:24;;;;;;;2.00;1.17;;;6.40;28.30;;;;;;5071845;28;20819;-73
2023/03/07 02:50:50;;;;;;;1.90;1.10;;;6.70;27.50;;;;;;5053659;28;20187;-73
2023/03/07 02:53:16;;;;;;;2.00;1.13;;;6.30;28.20;;;;;;5053312;28;20172;-73
2023/03/07 02:55:41;;;;;;;2.72;1.42;;;6.60;28.00;;;;;;5064698;28;20207;-73
2023/03/07 02:58:07;;;;;;;2.10;1.30;;;6.60;27.70;;;;;;5072507;28;20559;-73
2023/03/07 03:00:32;;;;;;;2.87;1.53;;;6.60;27.50;;;;;;5062080;28;20176;-72
2023/03/07 03:02:58;;;;;;;2.00;1.10;;;6.60;27.60;;;;;;5053058;28;20180;-73
2023/03/07 03:05:24;;;;;;;2.13;1.20;;;7.10;26.90;;;;;;5054712;28;20221;-73
2023/03/07 03:07:50;;;;;;;2.10;1.10;;;7.30;26.40;;;;;;5070101;28;20176;-73
2023/03/07 03:10:16;;;;;;;3.70;2.13;;;7.50;26.40;;;;;;5064273;28;20168;-73
2023/03/07 03:12:42;;;;;;;2.20;1.27;;;7.50;26.40;;;;;;5052725;28;20175;-73
2023/03/07 03:15:09;;;;;;;2.20;1.20;;;6.80;27.00;;;;;;5056746;28;20175;-73
2023/03/07 03:17:35;;;;;;;2.30;1.35;;;7.10;26.60;;;;;;5067265;28;20218;-73
2023/03/07 03:20:01;;;;;;;2.20;1.20;;;7.30;26.00;;;;;;5062543;28;20175;-73
2023/03/07 03:22:26;;;;;;;2.70;1.55;;;6.90;26.90;;;;;;5064615;28;20704;-73
2023/03/07 03:24:52;;;;;;;2.60;1.60;;;7.00;26.50;;;;;;5058749;28;20200;-73
2023/03/07 03:27:17;;;;;;;2.20;1.10;;;7.20;26.90;;;;;;5056022;28;20273;-72
2023/03/07 03:29:43;;;;;;;2.20;1.10;;;7.30;26.10;;;;;;5060423;28;20183;-73
2023/03/07 03:32:08;;;;;;;2.60;1.40;;;7.40;26.10;;;;;;5065579;28;20659;-73
2023/03/07 03:34:35;;;;;;;2.20;1.10;;;7.20;25.90;;;;;;5060454;28;20187;-73
2023/03/07 03:37:00;;;;;;;2.30;1.20;;;7.30;26.50;;;;;;5065061;28;20203;-73
2023/03/07 03:39:27;;;;;;;2.20;1.10;;;7.20;26.10;;;;;;5063187;28;20196;-73
2023/03/07 03:41:53;;;;;;;3.05;1.65;;;7.40;25.50;;;;;;5063305;28;20187;-73
2023/03/07 03:44:19;;;;;;;2.30;1.10;;;7.30;25.90;;;;;;5068611;28;20207;-73
2023/03/07 03:46:46;;;;;;;2.23;1.10;;;7.70;25.90;;;;;;5067027;28;20203;-73
2023/03/07 03:49:12;;;;;;;2.20;1.30;;;7.20;25.90;;;;;;5060179;28;20190;-73
2023/03/07 03:51:38;;;;;;;5.97;1.80;;;7.20;25.80;;;;;;5060636;28;20183;-73
2023/03/07 03:54:03;;;;;;;2.40;1.20;;;7.10;26.60;;;;;;5063488;28;20187;-73
2023/03/07 03:56:29;;;;;;;2.17;1.10;;;7.30;25.50;;;;;;5060972;28;20593;-73
2023/03/07 03:58:56;;;;;;;2.30;1.30;;;7.10;26.20;;;;;;5066607;28;20297;-73
2023/03/07 04:01:24;;;;;;;2.30;1.17;;;7.10;25.90;;;;;;5069288;28;20183;-69
2023/03/07 04:03:51;;;;;;;2.10;1.10;;;7.30;25.50;;;;;;5051911;28;20195;-73
2023/03/07 04:06:29;;;;;;;2.20;1.20;;;7.00;25.70;;;;;;5052390;28;20207;-73
2023/03/07 04:08:55;;;;;;;2.13;1.10;;;7.10;25.50;;;;;;5059709;28;20183;-73
2023/03/07 04:11:21;;;;;;;2.10;1.10;;;7.40;26.00;;;;;;5064897;28;20270;-73
2023/03/07 04:13:48;;;;;;;2.00;1.10;;;7.50;25.60;;;;;;5048769;28;20434;-73
2023/03/07 04:16:13;;;;;;;2.20;1.30;;;7.60;24.70;;;;;;5068793;28;20191;-72
2023/03/07 04:18:39;;;;;;;2.10;1.10;;;7.60;25.20;;;;;;5071915;28;20178;-73
2023/03/07 04:21:06;;;;;;;2.33;1.40;;;7.70;24.40;;;;;;5070207;28;20948;-71
2023/03/07 04:23:32;;;;;;;2.03;1.15;;;7.60;24.60;;;;;;5063838;28;20507;-73
2023/03/07 04:26:00;;;;;;;2.10;1.10;;;7.30;25.60;;;;;;5067968;28;20203;-73
2023/03/07 04:28:40;;;;;;;2.35;1.40;;;7.20;26.00;;;;;;5069993;28;20183;-73
2023/03/07 04:31:06;;;;;;;2.00;1.10;;;7.30;25.20;;;;;;5071222;28;20175;-73
2023/03/07 04:33:31;;;;;;;2.00;1.17;;;7.50;24.70;;;;;;5059683;28;20190;-73
2023/03/07 04:35:57;;;;;;;2.50;1.50;;;7.30;24.90;;;;;;5059658;28;20253;-73
2023/03/07 04:38:22;;;;;;;2.13;1.27;;;7.60;24.50;;;;;;5054065;28;20177;-73
2023/03/07 04:40:48;;;;;;;2.10;1.10;;;7.20;24.90;;;;;;5064825;28;20186;-73
2023/03/07 04:43:13;;;;;;;2.00;1.10;;;7.50;24.70;;;;;;5062785;28;20520;-73
2023/03/07 04:45:39;;;;;;;2.10;1.00;;;7.70;24.20;;;;;;5051380;28;20214;-73
2023/03/07 04:48:05;;;;;;;2.10;1.20;;;7.80;24.30;;;;;;5057057;28;20176;-73
2023/03/07 04:50:30;;;;;;;2.53;1.30;;;7.70;25.00;;;;;;5066535;28;20182;-73
2023/03/07 04:52:56;;;;;;;3.10;1.73;;;7.40;25.20;;;;;;5069613;28;20452;-73
2023/03/07 04:55:22;;;;;;;2.10;1.23;;;7.20;25.30;;;;;;5068109;28;20781;-73
2023/03/07 04:57:48;;;;;;;1.97;1.10;;;7.60;25.00;;;;;;5071156;28;20186;-72
2023/03/07 05:00:14;;;;;;;1.90;1.10;;;7.70;24.90;;;;;;5062459;28;20230;-73
2023/03/07 05:02:40;;;;;;;2.10;1.20;;;8.00;24.00;;;;;;5062147;28;20183;-72
2023/03/07 05:05:06;;;;;;;2.00;1.00;;;7.50;24.70;;;;;;5037548;28;20306;-73
2023/03/07 05:07:31;;;;;;;2.33;1.40;;;7.50;25.00;;;;;;5066000;28;20688;-73
2023/03/07 05:09:57;;;;;;;2.00;1.20;;;7.10;26.10;;;;;;5065141;28;20530;-73
2023/03/07 05:12:23;;;;;;;2.00;1.10;;;7.20;25.30;;;;;;5068944;28;20661;-73
2023/03/07 05:14:49;;;;;;;2.00;1.13;;;7.30;25.50;;;;;;5058577;28;20176;-73
2023/03/07 05:17:16;;;;;;;2.20;1.30;;;7.30;25.50;;;;;;5059308;28;20290;-73
2023/03/07 05:19:41;;;;;;;1.90;1.10;;;6.80;25.70;;;;;;5053130;28;20438;-73
2023/03/07 05:22:08;;;;;;;2.30;1.53;;;6.80;26.80;;;;;;5070548;28;20194;-73
2023/03/07 05:24:34;;;;;;;1.90;1.02;;;7.30;25.50;;;;;;5066285;28;20551;-73
2023/03/07 05:26:59;;;;;;;1.83;1.00;;;7.30;25.20;;;;;;5066041;28;20213;-73
2023/03/07 05:29:25;;;;;;;1.80;1.00;;;7.10;25.50;;;;;;5070776;28;20171;-73
2023/03/07 05:31:51;;;;;;;2.63;1.33;;;7.00;25.80;;;;;;5057327;28;20176;-73
2023/03/07 05:34:16;;;;;;;1.90;1.10;;;6.90;25.90;;;;;;5060699;28;20546;-73
2023/03/07 05:36:42;;;;;;;1.90;1.10;;;7.40;25.60;;;;;;5058334;28;20227;-73
2023/03/07 05:39:09;;;;;;;5.70;2.40;;;7.30;25.50;;;;;;5058357;28;20282;-73
2023/03/07 05:41:35;;;;;;;2.55;1.50;;;7.20;25.40;;;;;;5061891;28;20198;-73
2023/03/07 05:44:00;;;;;;;2.10;1.37;;;7.60;25.00;;;;;;5065362;28;20286;-73
2023/03/07 05:46:26;;;;;;;2.20;1.30;;;8.10;24.50;;;;;;5070028;28;20436;-73
2023/03/07 05:48:51;;;;;;;2.33;1.30;;;7.80;25.60;;;;;;5070361;28;20174;-73
2023/03/07 05:51:17;;;;;;;2.00;1.23;;;7.90;25.10;;;;;;5063878;28;20179;-73
2023/03/07 05:53:45;;;;;;;1.90;1.10;;;7.80;24.90;;;;;;5059178;28;20183;-73
2023/03/07 05:56:10;;;;;;;1.90;1.10;;;7.60;24.90;;;;;;5068978;28;20199;-73
2023/03/07 05:58:36;;;;;;;2.00;1.20;;;7.70;24.80;;;;;;5066014;28;20760;-74
2023/03/07 06:01:02;;;;;;;1.97;1.20;;;7.40;25.10;;;;;;5071698;28;20171;-73
2023/03/07 06:03:28;;;;;;;2.25;1.40;;;7.40;25.30;;;;;;5071492;28;20252;-72
2023/03/07 06:05:54;;;;;;;2.10;1.40;;;7.30;25.50;;;;;;5067791;28;20222;-73
2023/03/07 06:08:20;;;;;;;2.10;1.30;;;7.30;25.40;;;;;;5072662;28;20179;-73
2023/03/07 06:10:50;;;;;;;2.10;1.27;;;7.00;25.40;;;;;;5059533;28;20670;-73
2023/03/07 06:13:18;;;;;;;2.00;1.20;;;6.90;26.00;;;;;;5073761;28;20171;-73
2023/03/07 06:15:44;;;;;;;2.20;1.30;;;7.10;25.80;;;;;;5074247;28;20210;-71
2023/03/07 06:18:09;;;;;;;3.03;1.40;;;7.60;25.30;;;;;;5074010;28;20175;-73
2023/03/07 06:20:35;;;;;;;2.77;1.53;;;7.70;24.90;;;;;;5063864;28;20665;-72
2023/03/07 06:23:01;;;;;;;2.00;1.30;;;7.40;25.20;;;;;;5062871;28;20459;-73
2023/03/07 06:25:27;;;;;;;1.90;1.10;;;7.60;25.30;;;;;;5169080;22;20572;-69
2023/03/07 06:27:58;;;;;;;2.03;1.23;;;7.80;24.90;;;;;;5055482;28;20436;-69
2023/03/07 06:30:24;;;;;;;2.08;1.27;;;7.80;24.50;;;;;;5029056;28;20179;-69
2023/03/07 06:32:49;;;;;;;1.90;1.10;;;8.00;25.30;;;;;;5049444;28;20282;-69
2023/03/07 06:35:15;;;;;;;5.30;1.57;;;6.90;26.10;;;;;;5053099;28;20210;-69
2023/03/07 06:37:41;;;;;;;1.90;1.10;;;7.30;25.70;;;;;;5037284;28;20210;-69
2023/03/07 06:40:08;;;;;;;1.80;1.10;;;7.50;25.30;;;;;;5053858;28;20184;-69
2023/03/07 06:42:34;;;;;;;1.92;1.20;;;7.30;25.60;;;;;;5052220;28;20557;-68
2023/03/07 06:45:00;;;;;;;2.33;1.40;;;7.50;25.20;;;;;;5051334;28;20557;-69
2023/03/07 06:47:25;;;;;;;1.90;1.00;;;7.50;25.20;;;;;;5045028;28;20272;-70
2023/03/07 06:49:52;;;;;;;1.80;1.00;;;6.90;25.90;;;;;;5045378;28;20187;-69
2023/03/07 06:52:18;;;;;;;1.95;1.17;;;7.00;26.10;;;;;;5053459;28;20665;-69
2023/03/07 06:54:43;;;;;;;1.90;1.10;;;7.50;25.50;;;;;;5052568;28;20219;-67
2023/03/07 06:57:09;;;;;;;1.90;1.10;;;7.40;25.60;;;;;;5052671;28;20488;-68
2023/03/07 06:59:35;;;;;;;1.90;1.20;;;7.30;25.50;;;;;;5048188;28;20214;-67
2023/03/07 07:02:02;;;;;;;1.90;1.10;;;7.10;26.70;;;;;;5034139;28;20183;-68
2023/03/07 07:04:28;;;;;;;1.90;1.10;;;7.10;26.10;;;;;;5053955;28;20218;-68
2023/03/07 07:06:53;;;;;;;1.80;1.10;;;7.20;26.00;;;;;;5051314;28;20183;-68
2023/03/07 07:09:19;;;;;;;2.00;1.20;;;7.90;25.30;;;;;;5060771;28;21354;-68
2023/03/07 07:11:45;;;;;;;1.80;1.10;;;7.50;25.40;;;;;;5053876;28;20180;-68
2023/03/07 07:14:10;;;;;;;1.80;1.10;;;7.50;25.60;;;;;;5052360;28;20184;-67
2023/03/07 07:16:36;;;;;;;1.90;1.13;;;7.30;25.60;;;;;;5043247;28;20187;-68
2023/03/07 07:19:02;;;;;;;1.80;1.03;;;7.20;25.80;;;;;;5054215;28;20551;-68
2023/03/07 07:21:27;;;;;;;1.80;1.10;;;7.20;25.80;;;;;;5046866;28;20187;-68
2023/03/07 07:23:56;;;;;;;1.80;1.10;;;8.10;25.90;;;;;;5035605;28;20438;-67
2023/03/07 07:26:23;;;;;;;1.90;1.10;;;7.40;25.80;;;;;;5052894;28;20279;-68
2023/03/07 07:28:48;;;;;;;1.80;1.10;;;7.10;26.20;;;;;;5051278;28;20180;-67
2023/03/07 07:31:14;;;;;;;1.87;1.10;;;7.10;26.00;;;;;;5051833;28;20184;-68
2023/03/07 07:33:40;;;;;;;1.90;1.13;;;7.70;25.50;;;;;;5050685;28;20184;-68
2023/03/07 07:36:07;;;;;;;2.00;1.23;;;7.90;25.70;;;;;;5048602;28;20450;-67
2023/03/07 07:38:33;;;;;;;2.40;1.40;;;7.70;25.50;;;;;;5036802;28;20192;-68
2023/03/07 07:40:59;;;;;;;2.07;1.33;;;7.90;24.80;;;;;;5035909;28;20689;-67
2023/03/07 07:43:25;;;;;;;1.80;1.05;;;7.80;24.80;;;;;;5049945;28;20480;-68
2023/03/07 07:45:50;;;;;;;3.03;1.50;;;8.20;24.60;;;;;;5048095;28;20620;-68
2023/03/07 07:48:16;;;;;;;1.83;1.10;;;7.90;24.80;;;;;;5050921;28;20708;-67
2023/03/07 07:50:42;;;;;;;1.80;1.10;;;7.70;25.00;;;;;;5034668;28;20176;-67
2023/03/07 07:53:07;;;;;;;1.77;1.10;;;7.40;25.40;;;;;;5034630;28;20190;-67
2023/03/07 07:55:33;;;;;;;2.27;1.17;;;7.30;25.80;;;;;;5051119;28;20211;-69
2023/03/07 07:57:58;;;;;;;1.80;1.00;;;7.40;25.50;;;;;;5045862;28;20188;-68
2023/03/07 08:00:24;;;;;;;2.17;1.40;;;7.80;25.10;;;;;;5050323;28;20215;-67
2023/03/07 08:02:50;;;;;;;1.80;1.10;;;7.90;25.20;;;;;;5051046;28;20697;-67
2023/03/07 08:05:18;;;;;;;2.40;1.70;;;8.40;24.70;;;;;;5051306;28;20470;-68
2023/03/07 08:07:44;;;;;;;1.80;1.10;;;8.50;24.20;;;;;;5052010;28;20191;-67
2023/03/07 08:10:14;;;;;;;2.05;1.23;;;8.30;24.60;;;;;;5036010;28;20180;-67
2023/03/07 08:12:44;;;;;;;1.80;1.10;;;8.20;24.20;;;;;;5032977;28;20773;-67
2023/03/07 08:15:10;;;;;;;1.90;1.23;;;7.90;24.80;;;;;;5049345;28;20758;-67
2023/03/07 08:17:36;;;;;;;2.05;1.40;;;8.00;25.00;;;;;;5047010;28;20210;-69
2023/03/07 08:20:07;;;;;;;1.80;1.20;;;7.80;25.30;;;;;;5049431;28;20184;-69
2023/03/07 08:22:33;;;;;;;1.83;1.17;;;7.90;24.80;;;;;;5031573;28;20654;-69
2023/03/07 08:24:59;;;;;;;1.80;1.10;;;8.50;24.00;;;;;;5043192;28;20648;-69
2023/03/07 08:27:26;;;;;;;1.80;1.10;;;8.40;24.00;;;;;;5050536;28;20210;-69
2023/03/07 08:29:52;;;;;;;2.28;1.50;;;8.00;25.10;;;;;;5048620;28;20263;-69
2023/03/07 08:32:18;;;;;;;2.00;1.30;;;8.80;24.20;;;;;;5050313;28;20619;-68
2023/03/07 08:34:44;;;;;;;2.05;1.40;;;8.70;23.80;;;;;;5047957;28;20222;-70
2023/03/07 08:37:09;;;;;;;1.83;1.20;;;8.80;23.40;;;;;;5047721;28;20262;-70
2023/03/07 08:39:35;;;;;;;1.90;1.20;;;8.20;24.30;;;;;;5048109;28;20187;-69
2023/03/07 08:42:01;;;;;;;1.73;1.10;;;8.30;24.00;;;;;;5048061;28;20219;-70
2023/03/07 08:44:26;;;;;;;1.80;1.20;;;8.20;24.20;;;;;;5046524;28;20212;-70
2023/03/07 08:46:52;;;;;;;1.70;1.10;;;8.40;24.00;;;;;;5049661;28;20191;-70
2023/03/07 08:49:18;;;;;;;1.90;1.30;;;8.20;24.40;;;;;;5033841;28;20561;-69
2023/03/07 08:51:46;;;;;;;1.80;1.10;;;8.10;24.20;;;;;;5051962;28;20715;-69
2023/03/07 08:54:12;;;;;;;1.80;1.10;;;8.00;24.60;;;;;;5033404;28;20177;-69
2023/03/07 08:56:37;;;;;;;1.90;1.20;;;8.00;24.50;;;;;;5049841;28;20216;-70
2023/03/07 08:59:03;;;;;;;1.80;1.20;;;7.90;25.00;;;;;;5050238;28;20642;-70
2023/03/07 09:01:29;;;;;;;2.13;1.53;;;7.90;25.10;;;;;;5040750;28;20632;-70
2023/03/07 09:03:54;;;;;;;2.00;1.20;;;8.10;24.10;;;;;;5041432;28;20525;-70
2023/03/07 09:06:21;;;;;;;1.77;1.13;;;8.30;25.10;;;;;;5051133;28;20181;-69
2023/03/07 09:08:47;;;;;;;1.80;1.10;;;8.90;23.40;;;;;;5047967;28;20234;-70
2023/03/07 09:11:14;;;;;;;2.25;1.52;;;8.50;23.50;;;;;;5047043;28;20222;-70
2023/03/07 09:13:40;;;;;;;3.35;1.55;;;7.30;24.60;;;;;;5050790;28;20168;-69
2023/03/07 09:16:06;;;;;;;1.80;1.10;;;7.40;25.40;;;;;;5065242;28;20576;-70
2023/03/07 09:18:32;;;;;;;1.80;1.10;;;8.00;24.50;;;;;;5052132;28;20979;-70
2023/03/07 09:21:03;;;;;;;3.08;1.50;;;8.30;23.50;;;;;;5053312;28;20663;-70
2023/03/07 09:23:28;;;;;;;3.35;1.65;;;8.00;24.00;;;;;;5053917;28;20168;-70
2023/03/07 09:25:57;;;;;;;1.80;1.20;;;7.90;24.60;;;;;;5053034;28;20220;-70
2023/03/07 09:28:22;;;;;;;2.45;1.33;;;8.50;23.90;;;;;;5035974;28;20185;-70
2023/03/07 09:30:48;;;;;;;1.70;1.00;;;8.50;23.30;;;;;;5055512;28;20172;-70
2023/03/07 09:33:14;;;;;;;1.70;1.10;;;8.20;23.70;;;;;;5054339;28;20188;-70
2023/03/07 09:35:39;;;;;;;1.80;1.20;;;7.80;24.70;;;;;;5042919;28;20691;-70
2023/03/07 09:38:05;;;;;;;2.27;1.30;;;7.40;25.00;;;;;;5035244;28;20172;-70
2023/03/07 09:40:34;;;;;;;1.70;1.10;;;7.00;26.10;;;;;;5034011;28;20177;-70
2023/03/07 09:43:07;;;;;;;1.80;1.20;;;7.50;25.30;;;;;;5043681;28;20183;-70
2023/03/07 09:46:07;;;;;;;1.70;1.10;;;8.10;24.50;;;;;;5053948;28;20687;-69
2023/03/07 09:49:11;;;;;;;1.70;1.13;;;7.70;24.90;;;;;;5035376;28;20170;-70
2023/03/07 09:51:38;;;;;;;1.70;1.10;;;8.30;24.00;;;;;;5044532;28;20184;-70
2023/03/07 09:54:18;;;;;;;1.70;1.10;;;8.80;23.60;;;;;;5050814;28;20290;-70
2023/03/07 09:56:56;;;;;;;1.70;1.10;;;8.90;23.00;;;;;;5054127;28;20619;-70
2023/03/07 09:59:27;;;;;;;1.70;1.10;;;8.70;23.50;;;;;;5044329;28;20176;-70
2023/03/07 10:02:17;;;;;;;1.80;1.10;;;8.50;23.80;;;;;;5051699;28;20181;-70
2023/03/07 10:05:03;;;;;;;1.90;1.30;;;9.50;22.50;;;;;;5053403;28;20592;-70
2023/03/07 10:07:28;;;;;;;1.75;1.10;;;9.30;21.70;;;;;;5035480;28;20624;-70
2023/03/07 10:10:38;;;;;;;1.70;1.10;;;8.40;22.90;;;;;;5034473;28;20224;-70
2023/03/07 10:13:37;;;;;;;2.40;1.35;;;8.40;23.60;;;;;;5030425;28;20187;-70
2023/03/07 10:16:27;;;;;;;2.05;1.30;;;8.30;23.20;;;;;;5049680;28;20680;-70
2023/03/07 10:19:20;;;;;;;2.13;1.45;;;8.00;23.60;;;;;;5054234;28;20174;-70
2023/03/07 10:22:12;;;;;;;1.90;1.20;;;8.60;23.20;;;;;;5054146;28;20297;-70
2023/03/07 10:25:15;;;;;;;2.45;1.70;;;8.50;21.90;;;;;;5032921;28;20615;-70
2023/03/07 10:27:43;;;;;;;2.88;1.30;;;8.50;21.80;;;;;;5049799;28;20281;-70
2023/03/07 10:30:19;;;;;;;1.80;1.10;;;8.50;21.50;;;;;;5052693;28;20589;-69
2023/03/07 10:32:54;;;;;;;1.90;1.30;;;8.50;21.20;;;;;;5047843;28;20298;-70
2023/03/07 10:35:23;;;;;;;1.80;1.10;;;7.70;22.60;;;;;;5036015;28;20659;-70
2023/03/07 10:38:17;;;;;;;1.75;1.10;;;8.30;21.80;;;;;;5033874;28;20236;-69
2023/03/07 10:40:56;;;;;;;1.80;1.13;;;8.30;21.70;;;;;;4973483;28;20205;-69
2023/03/07 10:43:28;;;;;;;1.80;1.20;;;7.90;21.70;;;;;;4980248;28;20546;-69
2023/03/07 10:46:15;;;;;;;2.42;1.45;;;7.40;23.00;;;;;;4972578;28;20737;-69
2023/03/07 10:48:45;;;;;;;1.80;1.10;;;7.30;22.90;;;;;;4972496;28;20267;-69
2023/03/07 10:51:37;;;;;;;1.70;1.05;;;6.90;23.10;;;;;;4971670;28;20195;-69
2023/03/07 10:54:14;;;;;;;2.65;1.75;;;6.90;23.20;;;;;;4975813;28;20186;-69
2023/03/07 10:56:39;;;;;;;1.80;1.20;;;7.00;22.90;;;;;;4975517;28;20174;-69
2023/03/07 10:59:09;;;;;;;1.80;1.10;;;7.20;23.10;;;;;;4992001;28;20327;-69
2023/03/07 11:01:37;;;;;;;1.90;1.20;;;7.80;22.10;;;;;;4987310;28;20179;-69
2023/03/07 11:04:05;;;;;;;2.00;1.10;;;7.40;22.60;;;;;;4982844;28;20711;-69
2023/03/07 11:06:43;;;;;;;1.70;1.10;;;8.30;22.10;;;;;;4979692;28;20206;-69
2023/03/07 11:09:27;;;;;;;1.90;1.20;;;8.50;20.60;;;;;;4972332;28;20192;-69
2023/03/07 11:11:55;;;;;;;2.20;1.52;;;8.60;20.70;;;;;;4972321;28;20202;-69
2023/03/07 11:14:21;;;;;;;1.83;1.13;;;9.00;19.60;;;;;;4972021;28;20233;-70
2023/03/07 11:16:59;;;;;;;1.88;1.10;;;8.80;20.70;;;;;;4983625;28;20231;-69
2023/03/07 11:19:26;;;;;;;1.80;1.10;;;8.20;21.00;;;;;;5043367;28;20174;-69
2023/03/07 11:21:54;;;;;;;3.35;1.85;;;7.40;22.10;;;;;;5033984;28;20674;-69
2023/03/07 11:24:28;;;;;;;1.80;1.10;;;7.50;22.00;;;;;;5033771;28;20704;-70
2023/03/07 11:26:56;;;;;;;1.90;1.20;;;7.30;22.40;;;;;;5044112;28;20230;-69
2023/03/07 11:29:23;;;;;;;1.70;1.00;;;7.90;21.70;;;;;;5053043;28;20266;-69
2023/03/07 11:32:03;;;;;;;1.80;1.10;;;7.90;22.00;;;;;;5035379;28;20536;-69
2023/03/07 11:34:47;;;;;;;2.30;1.48;;;7.50;21.70;;;;;;5034372;28;20615;-69
2023/03/07 11:37:36;;;;;;;2.50;1.50;;;7.70;21.70;;;;;;5050271;28;20180;-68
2023/03/07 11:40:18;;;;;;;1.70;1.00;;;7.90;21.40;;;;;;5045883;28;20451;-69
2023/03/07 11:42:59;;;;;;;1.80;1.10;;;7.80;21.80;;;;;;5032542;28;20251;-69
2023/03/07 11:45:43;;;;;;;1.80;1.10;;;9.00;20.00;;;;;;5032734;28;20714;-70
2023/03/07 11:48:31;;;;;;;1.80;1.00;;;9.30;20.10;;;;;;5041003;28;20662;-70
2023/03/07 11:50:56;;;;;;;1.80;1.10;;;9.90;18.40;;;;;;5049235;28;20180;-70
2023/03/07 11:53:28;;;;;;;2.93;1.60;;;11.30;17.80;;;;;;5049626;28;20249;-70
2023/03/07 11:56:14;;;;;;;1.90;1.17;;;10.40;17.20;;;;;;5048680;28;20209;-70
2023/03/07 11:58:52;;;;;;;1.93;1.30;;;10.30;17.40;;;;;;5048339;28;20445;-70
2023/03/07 12:01:35;;;;;;;2.57;1.20;;;8.90;18.80;;;;;;5050378;28;20434;-70
2023/03/07 12:04:22;;;;;;;1.90;1.23;;;8.70;20.00;;;;;;5034120;28;20418;-70
2023/03/07 12:07:31;;;;;;;1.80;1.10;;;9.20;20.10;;;;;;5050964;28;20444;-70
2023/03/07 12:10:12;;;;;;;2.00;1.30;;;8.90;19.80;;;;;;5046688;28;20813;-70
2023/03/07 12:13:16;;;;;;;1.90;1.20;;;9.40;20.70;;;;;;5052056;28;20405;-70
2023/03/07 12:15:54;;;;;;;2.07;1.20;;;9.40;20.10;;;;;;5052092;28;20802;-71
2023/03/07 12:18:22;;;;;;;1.90;1.20;;;9.20;19.80;;;;;;5049457;28;20473;-70
2023/03/07 12:20:57;;;;;;;1.97;1.30;;;9.50;20.00;;;;;;5051168;28;20444;-70
2023/03/07 12:23:43;;;;;;;2.30;1.50;;;8.70;20.30;;;;;;5033620;28;20501;-71
2023/03/07 12:26:23;;;;;;;2.10;1.42;;;7.60;22.20;;;;;;5031811;28;20971;-71
2023/03/07 12:28:54;;;;;;;1.80;1.10;;;8.00;21.80;;;;;;5032974;28;20244;-71
2023/03/07 12:31:31;;;;;;;1.70;1.10;;;7.80;21.90;;;;;;5042431;28;20186;-71
2023/03/07 12:34:08;;;;;;;2.10;1.50;;;7.60;21.90;;;;;;5049210;28;21003;-71
2023/03/07 12:36:45;;;;;;;2.13;1.40;;;8.00;21.90;;;;;;5046309;28;20179;-70
2023/03/07 12:39:19;;;;;;;1.80;1.13;;;8.80;21.00;;;;;;5043323;28;20652;-71
2023/03/07 12:42:12;;;;;;;1.87;1.20;;;10.20;19.00;;;;;;5049667;28;20266;-71
2023/03/07 12:44:40;;;;;;;1.80;1.20;;;9.90;19.50;;;;;;5097235;22;20883;-73
2023/03/07 12:47:15;;;;;;;2.00;1.30;;;12.20;19.80;;;;;;5084762;28;20425;-73
2023/03/07 12:49:52;;;;;;;2.30;1.30;;;10.50;17.90;;;;;;5090717;28;21007;-73
2023/03/07 12:52:37;;;;;;;2.53;1.63;;;10.80;16.90;;;;;;5090127;28;20451;-73
2023/03/07 12:55:26;;;;;;;2.00;1.20;;;9.90;18.70;;;;;;5089351;28;20447;-73
2023/03/07 12:58:18;;;;;;;2.10;1.40;;;10.80;16.20;;;;;;5084782;28;20990;-73
2023/03/07 13:01:00;;;;;;;1.80;1.10;;;11.50;15.70;;;;;;5090051;28;20470;-74
2023/03/07 13:03:49;;;;;;;2.33;1.40;;;11.70;15.20;;;;;;5087438;28;20567;-73
2023/03/07 13:06:19;;;;;;;2.00;1.20;;;11.70;15.30;;;;;;5066504;28;20943;-73
2023/03/07 13:08:50;;;;;;;2.00;1.30;;;10.90;16.80;;;;;;5086208;28;20513;-73
2023/03/07 13:11:21;;;;;;;2.10;1.43;;;10.70;16.00;;;;;;5086344;28;20429;-72
2023/03/07 13:13:50;;;;;;;2.37;1.30;;;10.50;16.20;;;;;;5085684;28;20952;-75
2023/03/07 13:16:39;;;;;;;3.27;1.87;;;11.40;16.60;;;;;;5086134;28;20516;-73